createdAt,value
2017-12-21T00:02:10.557Z,90.00
2017-12-21T00:04:44.292Z,90.10
2017-12-21T00:07:18.792Z,90.30
2017-12-21T00:09:52.598Z,90.30
2017-12-21T00:12:26.616Z,90.30
2017-12-21T00:15:00.382Z,90.50
2017-12-21T00:17:34.284Z,90.40
2017-12-21T00:20:08.135Z,90.20
2017-12-21T00:22:41.920Z,90.10
2017-12-21T00:25:15.696Z,89.80
2017-12-21T00:27:49.536Z,89.70
2017-12-21T00:30:23.278Z,89.60
2017-12-21T00:32:57.765Z,89.40
2017-12-21T00:35:31.484Z,89.40
2017-12-21T00:38:05.294Z,89.50
2017-12-21T00:40:39.175Z,89.70
2017-12-21T00:43:14.302Z,90.00
2017-12-21T00:45:48.004Z,89.90
2017-12-21T00:48:21.855Z,90.00
2017-12-21T00:50:55.715Z,90.00
2017-12-21T00:53:30.362Z,90.10
2017-12-21T00:56:03.992Z,90.10
2017-12-21T00:58:38.598Z,90.50
2017-12-21T01:01:12.368Z,90.30
2017-12-21T01:03:46.236Z,90.20
2017-12-21T01:06:20.048Z,90.30
2017-12-21T01:08:53.960Z,90.60
2017-12-21T01:11:27.748Z,90.70
2017-12-21T01:14:02.346Z,91.00
2017-12-21T01:16:36.074Z,90.90
2017-12-21T01:19:10.689Z,91.70
2017-12-21T01:21:44.507Z,91.70
2017-12-21T01:24:19.118Z,92.10
2017-12-21T01:26:52.960Z,92.10
2017-12-21T01:29:26.800Z,92.30
2017-12-21T01:32:00.528Z,92.60
2017-12-21T01:34:34.553Z,92.60
2017-12-21T01:37:08.264Z,92.60
2017-12-21T01:39:42.878Z,92.60
2017-12-21T01:42:16.671Z,92.60
2017-12-21T01:44:50.404Z,92.60
2017-12-21T01:47:24.996Z,92.60
2017-12-21T01:49:58.977Z,92.60
2017-12-21T01:52:32.716Z,92.80
2017-12-21T01:55:06.340Z,92.90
2017-12-21T01:57:40.147Z,93.10
2017-12-21T02:00:13.979Z,93.10
2017-12-21T02:02:47.752Z,93.10
2017-12-21T02:05:22.270Z,92.80
2017-12-21T02:07:56.760Z,92.60
2017-12-21T02:10:31.539Z,92.70
2017-12-21T02:13:05.406Z,92.70
2017-12-21T02:15:39.285Z,92.70
2017-12-21T02:18:13.934Z,92.60
2017-12-21T02:20:47.727Z,92.60
2017-12-21T02:23:22.248Z,92.70
2017-12-21T02:25:56.995Z,92.70
2017-12-21T02:28:30.785Z,92.70
2017-12-21T02:31:04.618Z,92.70
2017-12-21T02:33:38.341Z,92.60
2017-12-21T02:36:12.314Z,92.50
2017-12-21T02:38:46.125Z,92.60
2017-12-21T02:41:19.952Z,92.60
2017-12-21T02:43:54.463Z,92.70
2017-12-21T02:46:28.996Z,92.70
2017-12-21T02:49:02.748Z,92.60
2017-12-21T02:51:37.620Z,92.40
2017-12-21T02:54:11.284Z,92.30
2017-12-21T02:56:45.126Z,92.50
2017-12-21T02:59:18.864Z,92.50
2017-12-21T03:01:53.483Z,92.40
2017-12-21T03:04:27.081Z,92.50
2017-12-21T03:07:00.825Z,92.50
2017-12-21T03:09:34.592Z,92.40
2017-12-21T03:12:08.408Z,92.30
2017-12-21T03:14:42.268Z,92.30
2017-12-21T03:17:15.869Z,92.40
2017-12-21T03:19:49.923Z,92.40
2017-12-21T03:22:23.703Z,92.40
2017-12-21T03:24:58.373Z,92.50
2017-12-21T03:27:32.103Z,92.50
2017-12-21T03:30:05.839Z,92.40
2017-12-21T03:32:39.575Z,92.30
2017-12-21T03:35:14.180Z,92.50
2017-12-21T03:37:47.994Z,92.30
2017-12-21T03:40:21.632Z,92.40
2017-12-21T03:42:55.416Z,92.40
2017-12-21T03:45:29.936Z,92.30
2017-12-21T03:48:03.807Z,92.30
2017-12-21T03:50:37.527Z,92.30
2017-12-21T03:53:11.129Z,92.40
2017-12-21T03:55:44.893Z,92.30
2017-12-21T03:58:19.432Z,92.10
2017-12-21T04:00:53.266Z,92.10
2017-12-21T04:03:27.077Z,92.00
2017-12-21T04:06:00.929Z,91.90
2017-12-21T04:08:35.287Z,92.00
2017-12-21T04:11:09.824Z,92.20
2017-12-21T04:13:43.649Z,92.20
2017-12-21T04:16:17.441Z,92.30
2017-12-21T04:18:51.254Z,92.50
2017-12-21T04:21:25.052Z,92.60
2017-12-21T04:23:59.573Z,92.50
2017-12-21T04:26:33.263Z,92.50
2017-12-21T04:29:07.138Z,92.40
2017-12-21T04:31:41.206Z,92.40
2017-12-21T04:34:14.986Z,92.30
2017-12-21T04:36:48.812Z,92.40
2017-12-21T04:39:22.625Z,92.30
2017-12-21T04:41:56.464Z,92.30
2017-12-21T04:44:30.209Z,92.20
2017-12-21T04:47:04.027Z,92.30
2017-12-21T04:49:38.664Z,92.30
2017-12-21T04:52:12.490Z,92.30
2017-12-21T04:54:46.281Z,92.30
2017-12-21T04:57:20.080Z,92.20
2017-12-21T04:59:53.804Z,91.90
2017-12-21T05:02:27.609Z,92.00
2017-12-21T05:05:01.429Z,92.00
2017-12-21T05:07:37.239Z,92.20
2017-12-21T05:10:11.760Z,92.10
2017-12-21T05:12:45.433Z,92.10
2017-12-21T05:15:19.699Z,91.80
2017-12-21T05:17:53.686Z,91.90
2017-12-21T05:20:27.565Z,91.80
2017-12-21T05:23:01.328Z,92.20
2017-12-21T05:25:35.828Z,92.90
2017-12-21T05:28:09.692Z,92.80
2017-12-21T05:30:43.465Z,93.00
2017-12-21T05:33:18.080Z,93.40
2017-12-21T05:35:51.702Z,93.40
2017-12-21T05:38:25.804Z,93.60
2017-12-21T05:40:59.674Z,93.70
2017-12-21T05:43:33.484Z,93.70
2017-12-21T05:46:07.185Z,93.90
2017-12-21T05:48:42.649Z,94.10
2017-12-21T05:51:16.363Z,94.10
2017-12-21T05:53:51.099Z,94.30
2017-12-21T05:56:25.704Z,94.20
2017-12-21T05:58:59.470Z,94.20
2017-12-21T06:01:33.349Z,94.30
2017-12-21T06:04:07.324Z,94.30
2017-12-21T06:06:42.948Z,94.60
2017-12-21T06:09:16.791Z,94.60
2017-12-21T06:11:50.601Z,94.50
2017-12-21T06:14:25.120Z,94.60
2017-12-21T06:16:59.009Z,94.50
2017-12-21T06:19:33.647Z,94.50
2017-12-21T06:22:09.291Z,94.60
2017-12-21T06:24:45.036Z,94.90
2017-12-21T06:27:18.708Z,94.50
2017-12-21T06:29:54.394Z,94.60
2017-12-21T06:32:28.582Z,94.50
2017-12-21T06:35:03.254Z,94.60
2017-12-21T06:37:36.925Z,94.60
2017-12-21T06:40:12.304Z,95.00
2017-12-21T06:42:46.111Z,95.00
2017-12-21T06:45:20.719Z,94.90
2017-12-21T06:47:56.305Z,93.30
2017-12-21T06:50:30.278Z,93.10
2017-12-21T06:53:04.041Z,93.60
2017-12-21T06:55:37.848Z,93.80
2017-12-21T06:58:11.693Z,94.00
2017-12-21T07:00:45.532Z,94.00
2017-12-21T07:03:19.302Z,94.20
2017-12-21T07:05:53.840Z,94.70
2017-12-21T07:08:27.739Z,94.60
2017-12-21T07:11:01.533Z,94.70
2017-12-21T07:13:35.377Z,94.40
2017-12-21T07:16:09.988Z,94.70
2017-12-21T07:18:43.694Z,94.60
2017-12-21T07:21:22.873Z,94.60
2017-12-21T07:23:56.884Z,94.60
2017-12-21T07:26:30.680Z,94.50
2017-12-21T07:29:04.537Z,94.70
2017-12-21T07:31:38.397Z,94.70
2017-12-21T07:34:12.972Z,94.80
2017-12-21T07:36:47.423Z,94.60
2017-12-21T07:39:21.191Z,94.60
2017-12-21T07:41:54.885Z,94.70
2017-12-21T07:44:28.582Z,94.80
2017-12-21T07:47:03.196Z,94.80
2017-12-21T07:49:36.936Z,94.70
2017-12-21T07:52:10.744Z,94.70
2017-12-21T07:54:45.235Z,94.40
2017-12-21T07:57:19.088Z,94.40
2017-12-21T07:59:53.572Z,94.30
2017-12-21T08:02:28.008Z,94.20
2017-12-21T08:05:01.824Z,94.20
2017-12-21T08:07:35.872Z,94.30
2017-12-21T08:10:09.520Z,94.30
2017-12-21T08:12:43.379Z,94.20
2017-12-21T08:15:17.149Z,94.20
2017-12-21T08:17:50.885Z,94.40
2017-12-21T08:20:25.459Z,94.30
2017-12-21T08:23:00.080Z,94.20
2017-12-21T08:25:33.666Z,94.20
2017-12-21T08:28:07.465Z,94.10
2017-12-21T08:30:41.116Z,93.40
2017-12-21T08:33:14.932Z,93.00
2017-12-21T08:35:49.417Z,92.80
2017-12-21T08:38:23.247Z,92.80
2017-12-21T08:40:57.543Z,93.00
2017-12-21T08:43:31.685Z,93.10
2017-12-21T08:46:05.446Z,92.90
2017-12-21T08:48:39.262Z,93.00
2017-12-21T08:51:13.116Z,92.90
2017-12-21T08:53:46.941Z,92.10
2017-12-21T08:56:21.385Z,92.20
2017-12-21T08:58:55.282Z,92.30
2017-12-21T09:01:29.120Z,92.10
2017-12-21T09:04:03.785Z,92.10
2017-12-21T09:06:38.390Z,92.30
2017-12-21T09:09:12.241Z,92.10
2017-12-21T09:11:46.047Z,91.70
2017-12-21T09:14:19.912Z,91.50
2017-12-21T09:16:54.456Z,91.40
2017-12-21T09:19:28.409Z,91.40
2017-12-21T09:22:02.280Z,91.50
2017-12-21T09:24:36.179Z,91.70
2017-12-21T09:27:10.099Z,91.40
2017-12-21T09:29:43.881Z,91.90
2017-12-21T09:32:18.715Z,91.80
2017-12-21T09:34:53.209Z,91.40
2017-12-21T09:37:26.971Z,91.40
2017-12-21T09:40:00.779Z,91.60
2017-12-21T09:42:34.555Z,91.90
2017-12-21T09:45:08.360Z,91.80
2017-12-21T09:47:42.080Z,91.90
2017-12-21T09:50:16.945Z,91.80
2017-12-21T09:52:51.823Z,91.90
2017-12-21T09:55:25.601Z,91.60
2017-12-21T09:58:00.389Z,91.50
2017-12-21T10:00:34.058Z,91.50
2017-12-21T10:03:07.792Z,91.10
2017-12-21T10:05:41.550Z,91.50
2017-12-21T10:08:15.387Z,91.40
2017-12-21T10:10:49.249Z,91.60
2017-12-21T10:13:23.000Z,91.20
2017-12-21T10:15:57.712Z,91.00
2017-12-21T10:18:32.216Z,90.50
2017-12-21T10:21:06.016Z,90.50
2017-12-21T10:23:39.817Z,90.70
2017-12-21T10:26:14.361Z,90.50
2017-12-21T10:28:48.944Z,90.30
2017-12-21T10:31:22.823Z,90.30
2017-12-21T10:33:56.617Z,90.80
2017-12-21T10:36:30.458Z,90.20
2017-12-21T10:39:04.256Z,90.50
2017-12-21T10:41:38.808Z,90.70
2017-12-21T10:44:13.347Z,90.80
2017-12-21T10:46:48.071Z,90.40
2017-12-21T10:49:21.877Z,90.40
2017-12-21T10:51:55.622Z,90.70
2017-12-21T10:54:29.344Z,90.80
2017-12-21T10:57:03.289Z,90.90
2017-12-21T10:59:37.328Z,90.30
2017-12-21T11:02:11.476Z,90.70
2017-12-21T11:04:45.192Z,90.60
2017-12-21T11:07:19.058Z,90.80
2017-12-21T11:09:52.844Z,90.60
2017-12-21T11:12:27.613Z,91.00
2017-12-21T11:15:01.864Z,91.00
2017-12-21T11:17:35.705Z,91.10
2017-12-21T11:20:10.213Z,90.80
2017-12-21T11:22:44.044Z,90.70
2017-12-21T11:25:17.874Z,90.70
2017-12-21T11:27:52.064Z,90.60
2017-12-21T11:30:26.573Z,90.80
2017-12-21T11:33:00.363Z,90.80
2017-12-21T11:35:34.056Z,90.50
2017-12-21T11:38:07.904Z,90.50
2017-12-21T11:40:41.744Z,90.20
2017-12-21T11:43:15.408Z,90.40
2017-12-21T11:45:49.306Z,90.40
2017-12-21T11:48:23.046Z,90.40
2017-12-21T11:50:56.798Z,90.50
2017-12-21T11:53:30.476Z,90.60
2017-12-21T11:56:04.332Z,90.50
2017-12-21T11:58:38.083Z,90.60
2017-12-21T12:01:12.754Z,90.80
2017-12-21T12:03:46.500Z,90.90
2017-12-21T12:06:20.240Z,90.80
2017-12-21T12:08:54.802Z,91.00
2017-12-21T12:11:29.318Z,90.90
2017-12-21T12:14:02.996Z,90.90
2017-12-21T12:16:36.818Z,90.60
2017-12-21T12:19:10.480Z,91.00
2017-12-21T12:21:44.300Z,91.00
2017-12-21T12:24:18.161Z,90.90
2017-12-21T12:26:51.904Z,90.70
2017-12-21T12:29:25.660Z,90.70
2017-12-21T12:31:59.561Z,91.10
2017-12-21T12:34:33.418Z,90.60
2017-12-21T12:37:07.112Z,90.70
2017-12-21T12:39:40.950Z,90.80
2017-12-21T12:42:15.595Z,91.40
2017-12-21T12:44:49.628Z,91.40
2017-12-21T12:47:23.411Z,90.90
2017-12-21T12:49:57.175Z,91.10
2017-12-21T12:52:31.776Z,91.20
2017-12-21T12:55:05.538Z,91.20
2017-12-21T12:57:40.279Z,91.00
2017-12-21T13:00:14.093Z,90.90
2017-12-21T13:02:47.975Z,91.10
2017-12-21T13:05:22.637Z,90.90
2017-12-21T13:07:56.466Z,90.90
2017-12-21T13:10:30.617Z,91.20
2017-12-21T13:13:04.547Z,91.20
2017-12-21T13:15:38.338Z,91.30
2017-12-21T13:18:11.954Z,91.50
2017-12-21T13:20:47.554Z,91.60
2017-12-21T13:23:21.306Z,91.50
2017-12-21T13:25:55.048Z,91.50
2017-12-21T13:28:29.558Z,91.80
2017-12-21T13:31:03.427Z,91.80
2017-12-21T13:33:37.156Z,91.90
2017-12-21T13:36:11.176Z,92.10
2017-12-21T13:38:45.709Z,92.90
2017-12-21T13:41:19.386Z,92.80
2017-12-21T13:43:54.013Z,93.30
2017-12-21T13:46:27.720Z,93.50
2017-12-21T13:49:01.532Z,93.70
2017-12-21T13:51:35.313Z,94.00
2017-12-21T13:54:10.705Z,94.00
2017-12-21T13:56:44.789Z,94.10
2017-12-21T13:59:18.636Z,94.20
2017-12-21T14:01:52.456Z,94.30
2017-12-21T14:04:26.251Z,94.40
2017-12-21T14:07:00.046Z,94.50
2017-12-21T14:09:33.849Z,94.50
2017-12-21T14:12:07.595Z,94.40
2017-12-21T14:14:42.180Z,94.50
2017-12-21T14:17:15.964Z,94.50
2017-12-21T14:19:49.776Z,94.60
2017-12-21T14:22:23.476Z,94.60
2017-12-21T14:24:57.588Z,94.60
2017-12-21T14:27:31.316Z,94.80
2017-12-21T14:30:05.107Z,94.70
2017-12-21T14:32:39.677Z,95.20
2017-12-21T14:35:13.459Z,94.90
2017-12-21T14:37:48.000Z,94.90
2017-12-21T14:40:21.777Z,94.80
2017-12-21T14:42:55.509Z,94.70
2017-12-21T14:45:30.323Z,94.70
2017-12-21T14:48:03.970Z,94.70
2017-12-21T14:50:37.809Z,94.60
2017-12-21T14:53:11.618Z,94.60
2017-12-21T14:55:46.240Z,94.60
2017-12-21T14:58:20.122Z,94.60
2017-12-21T15:00:53.926Z,95.00
2017-12-21T15:03:27.591Z,95.10
2017-12-21T15:06:01.416Z,95.40
2017-12-21T15:08:35.231Z,95.40
2017-12-21T15:11:09.108Z,95.40
2017-12-21T15:13:42.844Z,95.50
2017-12-21T15:16:16.724Z,95.50
2017-12-21T15:18:50.526Z,95.60
2017-12-21T15:21:24.324Z,95.50
2017-12-21T15:23:58.389Z,95.50
2017-12-21T15:26:32.289Z,95.70
2017-12-21T15:29:06.267Z,95.50
2017-12-21T15:31:40.057Z,95.50
2017-12-21T15:34:14.052Z,95.50
2017-12-21T15:36:47.854Z,95.60
2017-12-21T15:39:22.421Z,95.60
2017-12-21T15:41:57.119Z,95.70
2017-12-21T15:44:31.797Z,95.50
2017-12-21T15:47:05.532Z,95.50
2017-12-21T15:49:40.027Z,95.60
2017-12-21T15:52:14.460Z,95.70
2017-12-21T15:54:48.290Z,95.60
2017-12-21T15:57:23.104Z,95.50
2017-12-21T15:59:56.771Z,95.50
2017-12-21T16:02:30.606Z,95.40
2017-12-21T16:05:04.369Z,95.40
2017-12-21T16:07:38.225Z,94.90
2017-12-21T16:10:12.051Z,95.30
2017-12-21T16:12:46.054Z,95.30
2017-12-21T16:15:19.945Z,95.70
2017-12-21T16:17:54.074Z,95.30
2017-12-21T16:20:28.574Z,95.30
2017-12-21T16:23:02.465Z,95.30
2017-12-21T16:25:36.282Z,95.40
2017-12-21T16:28:10.125Z,95.30
2017-12-21T16:30:43.865Z,95.30
2017-12-21T16:33:17.700Z,95.30
2017-12-21T16:35:51.480Z,95.30
2017-12-21T16:38:25.236Z,95.20
2017-12-21T16:40:59.805Z,95.40
2017-12-21T16:43:33.590Z,95.40
2017-12-21T16:46:08.173Z,95.50
2017-12-21T16:48:41.864Z,95.40
2017-12-21T16:51:16.422Z,95.20
2017-12-21T16:53:50.124Z,95.20
2017-12-21T16:56:23.920Z,95.20
2017-12-21T16:58:57.764Z,95.30
2017-12-21T17:01:32.352Z,95.50
2017-12-21T17:04:06.852Z,95.60
2017-12-21T17:06:40.708Z,95.60
2017-12-21T17:09:14.456Z,95.40
2017-12-21T17:11:48.274Z,95.10
2017-12-21T17:14:21.988Z,95.30
2017-12-21T17:16:56.628Z,95.90
2017-12-21T17:19:31.252Z,96.00
2017-12-21T17:22:05.137Z,95.80
2017-12-21T17:24:38.937Z,95.80
2017-12-21T17:27:12.780Z,95.70
2017-12-21T17:29:46.591Z,95.80
2017-12-21T17:32:20.357Z,95.80
2017-12-21T17:34:54.164Z,95.80
2017-12-21T17:37:27.993Z,95.70
2017-12-21T17:40:01.832Z,95.70
2017-12-21T17:42:35.592Z,95.60
2017-12-21T17:45:09.334Z,95.60
2017-12-21T17:47:43.827Z,95.60
2017-12-21T17:50:17.653Z,95.60
2017-12-21T17:52:51.371Z,95.60
2017-12-21T17:55:25.203Z,95.70
2017-12-21T17:57:59.909Z,95.70
2017-12-21T18:00:34.190Z,95.80
2017-12-21T18:03:08.044Z,95.60
2017-12-21T18:05:41.930Z,95.60
2017-12-21T18:08:15.610Z,95.40
2017-12-21T18:10:50.092Z,95.80
2017-12-21T18:13:24.613Z,95.40
2017-12-21T18:15:58.440Z,95.40
2017-12-21T18:18:32.289Z,95.40
2017-12-21T18:21:06.886Z,95.60
2017-12-21T18:23:40.654Z,95.50
2017-12-21T18:26:15.209Z,95.40
2017-12-21T18:28:49.639Z,95.30
2017-12-21T18:31:23.679Z,95.30
2017-12-21T18:33:57.464Z,95.30
2017-12-21T18:36:31.359Z,95.10
2017-12-21T18:39:05.220Z,95.40
2017-12-21T18:41:38.965Z,95.40
2017-12-21T18:44:12.826Z,95.30
2017-12-21T18:46:46.528Z,95.20
2017-12-21T18:49:20.295Z,95.30
2017-12-21T18:51:54.392Z,95.20
2017-12-21T18:54:32.057Z,95.00
2017-12-21T18:57:05.880Z,95.00
2017-12-21T18:59:39.614Z,95.10
2017-12-21T19:02:13.481Z,95.00
2017-12-21T19:04:47.238Z,94.90
2017-12-21T19:07:21.066Z,94.90
2017-12-21T19:09:54.796Z,94.70
2017-12-21T19:12:28.633Z,94.80
2017-12-21T19:15:03.145Z,94.70
2017-12-21T19:17:37.207Z,94.70
2017-12-21T19:20:10.942Z,94.80
2017-12-21T19:22:44.794Z,94.20
2017-12-21T19:25:18.554Z,94.40
2017-12-21T19:27:52.350Z,94.50
2017-12-21T19:30:26.086Z,94.40
2017-12-21T19:32:59.901Z,94.30
2017-12-21T19:35:33.677Z,94.30
2017-12-21T19:38:07.547Z,94.30
2017-12-21T19:40:41.385Z,94.40
2017-12-21T19:43:15.249Z,94.40
2017-12-21T19:45:49.163Z,94.30
2017-12-21T19:48:23.785Z,94.50
2017-12-21T19:50:57.677Z,94.50
2017-12-21T19:53:32.177Z,94.30
2017-12-21T19:56:06.108Z,94.20
2017-12-21T19:58:39.915Z,94.40
2017-12-21T20:01:13.779Z,94.30
2017-12-21T20:03:48.211Z,94.30
2017-12-21T20:06:22.524Z,94.30
2017-12-21T20:08:56.287Z,94.30
2017-12-21T20:11:30.034Z,94.30
2017-12-21T20:14:03.869Z,94.50
2017-12-21T20:16:37.619Z,94.40
2017-12-21T20:19:11.581Z,94.50
2017-12-21T20:21:45.297Z,94.50
2017-12-21T20:24:19.075Z,94.50
2017-12-21T20:26:52.937Z,94.50
2017-12-21T20:29:27.476Z,94.70
2017-12-21T20:32:01.344Z,94.70
2017-12-21T20:34:35.124Z,94.70
2017-12-21T20:37:09.043Z,94.60
2017-12-21T20:39:42.881Z,94.70
2017-12-21T20:42:16.811Z,94.70
2017-12-21T20:44:50.846Z,94.40
2017-12-21T20:47:25.376Z,94.30
2017-12-21T20:49:59.235Z,94.30
2017-12-21T20:52:33.779Z,94.20
2017-12-21T20:55:07.704Z,94.20
2017-12-21T20:57:41.472Z,94.10
2017-12-21T21:00:15.241Z,94.10
2017-12-21T21:02:49.050Z,94.00
2017-12-21T21:05:22.986Z,93.70
2017-12-21T21:07:56.861Z,93.80
2017-12-21T21:10:30.707Z,93.70
2017-12-21T21:13:04.417Z,93.80
2017-12-21T21:15:38.222Z,93.80
2017-12-21T21:18:12.147Z,93.70
2017-12-21T21:20:46.037Z,93.50
2017-12-21T21:23:19.812Z,93.60
2017-12-21T21:25:54.392Z,93.60
2017-12-21T21:28:28.129Z,93.50
2017-12-21T21:31:02.688Z,93.50
2017-12-21T21:33:36.453Z,93.50
2017-12-21T21:36:10.207Z,93.80
2017-12-21T21:38:44.079Z,93.80
2017-12-21T21:41:18.596Z,93.80
2017-12-21T21:43:53.198Z,93.80
2017-12-21T21:46:27.092Z,93.80
2017-12-21T21:49:00.969Z,93.80
2017-12-21T21:51:35.322Z,93.80
2017-12-21T21:54:09.031Z,94.00
2017-12-21T21:56:43.593Z,94.30
2017-12-21T21:59:17.343Z,94.30
2017-12-21T22:01:51.268Z,94.30
2017-12-21T22:04:25.761Z,94.70
2017-12-21T22:06:59.503Z,94.70
2017-12-21T22:09:33.398Z,94.70
2017-12-21T22:12:07.490Z,94.80
2017-12-21T22:14:41.198Z,94.80
2017-12-21T22:17:15.303Z,94.90
2017-12-21T22:19:49.088Z,94.80
2017-12-21T22:22:23.019Z,94.60
2017-12-21T22:24:57.599Z,94.70
2017-12-21T22:27:31.460Z,94.70
2017-12-21T22:30:05.223Z,94.70
2017-12-21T22:32:39.036Z,94.70
2017-12-21T22:35:12.959Z,94.40
2017-12-21T22:37:46.815Z,94.70
2017-12-21T22:40:21.413Z,94.70
2017-12-21T22:42:55.253Z,94.60
2017-12-21T22:45:29.044Z,94.60
2017-12-21T22:48:02.912Z,94.50
2017-12-21T22:50:36.702Z,94.60
2017-12-21T22:53:10.536Z,94.60
2017-12-21T22:55:44.320Z,94.60
2017-12-21T22:58:18.216Z,94.50
2017-12-21T23:00:52.189Z,94.60
2017-12-21T23:03:26.069Z,94.50
2017-12-21T23:05:59.946Z,94.50
2017-12-21T23:08:33.700Z,94.60
2017-12-21T23:11:08.414Z,94.10
2017-12-21T23:13:42.337Z,94.10
2017-12-21T23:16:16.917Z,94.00
2017-12-21T23:18:50.619Z,94.00
2017-12-21T23:21:24.475Z,94.10
2017-12-21T23:23:59.078Z,94.30
2017-12-21T23:26:33.713Z,93.90
2017-12-21T23:29:07.497Z,93.90
2017-12-21T23:31:41.278Z,93.90
2017-12-21T23:34:15.210Z,93.90
2017-12-21T23:36:49.320Z,93.90
2017-12-21T23:39:23.004Z,94.00
2017-12-21T23:41:57.646Z,93.90
2017-12-21T23:44:31.414Z,93.90
2017-12-21T23:47:05.564Z,93.90
2017-12-21T23:49:39.405Z,93.70
2017-12-21T23:52:13.165Z,93.70
2017-12-21T23:54:48.290Z,93.70
2017-12-21T23:57:22.160Z,93.70
2017-12-21T23:59:56.018Z,94.10
